createdAt,value
2022-07-31T00:01:05.053Z,7.22
2022-07-31T00:03:50.835Z,5.07
2022-07-31T00:06:37.405Z,5.05
2022-07-31T00:09:52.511Z,6.60
2022-07-31T00:12:29.737Z,4.68
2022-07-31T00:15:15.919Z,5.68
2022-07-31T00:18:01.849Z,5.85
2022-07-31T00:20:49.482Z,6.90
2022-07-31T00:23:35.616Z,5.78
2022-07-31T00:26:21.624Z,5.63
2022-07-31T00:29:07.581Z,5.40
2022-07-31T00:31:53.552Z,5.78
2022-07-31T00:34:39.666Z,5.90
2022-07-31T00:37:25.441Z,3.60
2022-07-31T00:40:15.527Z,4.82
2022-07-31T00:43:01.505Z,5.40
2022-07-31T00:45:48.106Z,8.02
2022-07-31T00:48:43.217Z,5.90
2022-07-31T00:51:30.106Z,7.13
2022-07-31T00:54:22.547Z,5.68
2022-07-31T00:57:09.191Z,8.00
2022-07-31T00:59:55.068Z,6.60
2022-07-31T01:02:46.513Z,6.32
2022-07-31T01:05:33.083Z,7.97
2022-07-31T01:08:19.052Z,8.13
2022-07-31T01:11:28.177Z,6.35
2022-07-31T01:14:18.149Z,5.40
2022-07-31T01:17:06.313Z,5.80
2022-07-31T01:19:53.779Z,6.82
2022-07-31T01:22:58.433Z,4.57
2022-07-31T01:26:03.140Z,9.38
2022-07-31T01:29:19.137Z,5.07
2022-07-31T01:32:08.423Z,6.07
2022-07-31T01:35:15.802Z,5.47
2022-07-31T01:38:07.175Z,4.90
2022-07-31T01:41:02.200Z,8.27
2022-07-31T01:43:52.189Z,4.60
2022-07-31T01:46:41.546Z,4.70
2022-07-31T01:49:31.426Z,4.65
2022-07-31T01:52:20.495Z,7.72
2022-07-31T01:55:07.893Z,9.30
2022-07-31T01:57:55.727Z,7.13
2022-07-31T02:00:42.949Z,7.03
2022-07-31T02:03:43.388Z,5.15
2022-07-31T02:06:34.215Z,8.60
2022-07-31T02:09:24.019Z,4.88
2022-07-31T02:12:12.945Z,4.72
2022-07-31T02:15:02.210Z,6.78
2022-07-31T02:17:49.912Z,5.78
2022-07-31T02:21:02.126Z,3.92
2022-07-31T02:23:49.040Z,7.18
2022-07-31T02:26:36.317Z,6.50
2022-07-31T02:29:24.634Z,5.50
2022-07-31T02:32:14.633Z,8.15
2022-07-31T02:35:02.273Z,6.40
2022-07-31T02:37:51.883Z,13.13
2022-07-31T02:40:42.337Z,6.85
2022-07-31T02:43:34.726Z,5.57
2022-07-31T02:46:30.943Z,6.35
2022-07-31T02:49:17.309Z,4.55
2022-07-31T02:52:05.795Z,3.97
2022-07-31T02:54:52.834Z,6.78
2022-07-31T02:57:39.068Z,4.95
2022-07-31T03:00:30.856Z,5.20
2022-07-31T03:03:17.879Z,5.45
2022-07-31T03:06:04.545Z,7.43
2022-07-31T03:08:52.246Z,6.65
2022-07-31T03:11:43.981Z,5.90
2022-07-31T03:14:33.034Z,5.13
2022-07-31T03:17:20.079Z,5.82
2022-07-31T03:20:07.939Z,5.95
2022-07-31T03:22:55.078Z,9.67
2022-07-31T03:25:42.337Z,6.90
2022-07-31T03:28:29.057Z,5.72
2022-07-31T03:31:15.367Z,5.53
2022-07-31T03:34:01.864Z,7.82
2022-07-31T03:36:48.790Z,5.93
2022-07-31T03:39:35.447Z,5.28
2022-07-31T03:42:28.509Z,5.53
2022-07-31T03:45:16.478Z,6.25
2022-07-31T03:48:02.970Z,9.07
2022-07-31T03:50:50.633Z,6.32
2022-07-31T03:53:37.957Z,10.43
2022-07-31T03:56:24.936Z,5.82
2022-07-31T03:59:11.705Z,5.28
2022-07-31T04:02:01.383Z,5.72
2022-07-31T04:04:57.353Z,9.25
2022-07-31T04:07:43.553Z,9.02
2022-07-31T04:10:30.544Z,7.82
2022-07-31T04:13:20.541Z,8.77
2022-07-31T04:16:07.131Z,6.35
2022-07-31T04:18:53.169Z,4.57
2022-07-31T04:21:40.376Z,6.28
2022-07-31T04:24:26.649Z,6.85
2022-07-31T04:27:22.781Z,6.28
2022-07-31T04:30:09.690Z,9.13
2022-07-31T04:32:56.071Z,5.57
2022-07-31T04:35:42.312Z,5.88
2022-07-31T04:38:29.535Z,6.68
2022-07-31T04:41:17.409Z,6.18
2022-07-31T04:44:07.395Z,5.20
2022-07-31T04:47:09.974Z,5.88
2022-07-31T04:50:01.172Z,5.65
2022-07-31T04:52:47.182Z,7.22
2022-07-31T04:55:33.776Z,7.63
2022-07-31T04:58:19.657Z,5.47
2022-07-31T05:01:05.716Z,6.85
2022-07-31T05:03:51.611Z,7.03
2022-07-31T05:06:39.657Z,6.43
2022-07-31T05:09:30.052Z,9.77
2022-07-31T05:12:19.554Z,4.60
2022-07-31T05:15:07.308Z,8.35
2022-07-31T05:17:54.060Z,6.05
2022-07-31T05:21:06.830Z,4.47
2022-07-31T05:24:14.317Z,4.97
2022-07-31T05:27:06.810Z,7.63
2022-07-31T05:29:54.493Z,5.70
2022-07-31T05:32:41.691Z,6.13
2022-07-31T05:35:27.761Z,6.47
2022-07-31T05:38:14.125Z,6.70
2022-07-31T05:41:23.410Z,4.63
2022-07-31T05:44:28.073Z,6.47
2022-07-31T05:47:14.910Z,8.38
2022-07-31T05:50:01.196Z,5.75
2022-07-31T05:52:49.775Z,4.72
2022-07-31T05:55:56.337Z,4.72
2022-07-31T05:58:58.437Z,8.27
2022-07-31T06:01:44.815Z,4.93
2022-07-31T06:04:31.190Z,6.35
2022-07-31T06:07:17.318Z,6.03
2022-07-31T06:10:05.062Z,6.53
2022-07-31T06:12:51.582Z,9.48
2022-07-31T06:15:37.933Z,4.68
2022-07-31T06:18:29.877Z,6.32
2022-07-31T06:24:00.856Z,7.80
2022-07-31T06:27:00.857Z,4.32
2022-07-31T06:29:49.516Z,7.40
2022-07-31T06:32:36.619Z,4.95
2022-07-31T06:35:22.863Z,6.13
2022-07-31T06:38:41.372Z,5.07
2022-07-31T06:42:00.315Z,5.28
2022-07-31T06:44:49.375Z,6.20
2022-07-31T06:47:54.008Z,4.88
2022-07-31T06:51:30.351Z,5.30
2022-07-31T06:54:10.952Z,5.63
2022-07-31T06:56:58.155Z,6.35
2022-07-31T06:59:44.248Z,5.53
2022-07-31T07:02:33.481Z,4.55
2022-07-31T07:05:20.888Z,7.63
2022-07-31T07:08:10.511Z,5.22
2022-07-31T07:10:56.925Z,4.05
2022-07-31T07:13:48.685Z,4.50
2022-07-31T07:16:36.665Z,3.63
2022-07-31T07:19:22.767Z,6.22
2022-07-31T07:22:09.294Z,5.25
2022-07-31T07:24:56.742Z,4.88
2022-07-31T07:27:43.467Z,5.28
2022-07-31T07:30:29.543Z,4.75
2022-07-31T07:33:40.579Z,3.85
2022-07-31T07:36:25.908Z,3.78
2022-07-31T07:39:17.749Z,3.72
2022-07-31T07:42:05.416Z,4.72
2022-07-31T07:44:51.849Z,4.35
2022-07-31T07:48:02.355Z,4.15
2022-07-31T07:50:44.905Z,4.93
2022-07-31T07:53:53.711Z,3.35
2022-07-31T07:56:39.561Z,3.97
2022-07-31T07:59:44.482Z,4.15
2022-07-31T08:03:47.539Z,3.72
2022-07-31T08:06:03.903Z,3.90
2022-07-31T08:08:50.279Z,4.10
2022-07-31T08:11:55.351Z,4.80
2022-07-31T08:15:02.216Z,2.70
2022-07-31T08:18:11.567Z,4.13
2022-07-31T08:20:57.968Z,5.70
2022-07-31T08:23:44.476Z,4.88
2022-07-31T08:26:49.396Z,4.63
2022-07-31T08:29:37.133Z,4.45
2022-07-31T08:32:36.458Z,4.18
2022-07-31T08:35:22.999Z,5.43
2022-07-31T08:38:09.759Z,4.25
2022-07-31T08:41:01.107Z,4.55
2022-07-31T08:44:00.722Z,5.72
2022-07-31T08:46:51.536Z,4.38
2022-07-31T08:49:41.161Z,5.00
2022-07-31T08:52:32.297Z,4.13
2022-07-31T08:55:56.011Z,5.35
2022-07-31T08:58:37.222Z,3.15
2022-07-31T09:01:28.181Z,4.07
2022-07-31T09:04:14.493Z,3.03
2022-07-31T09:07:01.745Z,7.53
2022-07-31T09:09:52.254Z,5.20
2022-07-31T09:12:40.556Z,5.30
2022-07-31T09:15:29.656Z,3.40
2022-07-31T09:18:24.605Z,3.28
2022-07-31T09:21:19.845Z,3.42
2022-07-31T09:24:07.934Z,3.67
2022-07-31T09:27:05.525Z,5.32
2022-07-31T09:29:52.826Z,5.32
2022-07-31T09:33:22.445Z,3.63
2022-07-31T09:36:27.252Z,3.72
2022-07-31T09:39:27.751Z,5.57
2022-07-31T09:42:46.031Z,3.20
2022-07-31T09:45:48.512Z,5.05
2022-07-31T09:48:38.149Z,5.15
2022-07-31T09:51:41.977Z,4.22
2022-07-31T09:54:31.449Z,4.07
2022-07-31T09:57:17.453Z,4.47
2022-07-31T10:00:13.969Z,5.07
2022-07-31T10:03:04.695Z,4.53
2022-07-31T10:05:58.750Z,4.25
2022-07-31T10:08:50.095Z,4.18
2022-07-31T10:11:47.164Z,4.25
2022-07-31T10:14:41.269Z,4.65
2022-07-31T10:17:35.995Z,5.00
2022-07-31T10:20:37.195Z,4.00
2022-07-31T10:23:45.112Z,4.22
2022-07-31T10:26:58.641Z,3.58
2022-07-31T10:29:40.567Z,3.42
2022-07-31T10:32:27.297Z,3.70
2022-07-31T10:35:35.296Z,5.15
2022-07-31T10:38:53.139Z,2.90
2022-07-31T10:42:22.188Z,2.95
2022-07-31T10:45:15.059Z,4.18
2022-07-31T10:48:22.941Z,3.65
2022-07-31T10:51:26.618Z,4.65
2022-07-31T10:54:42.459Z,3.72
2022-07-31T10:57:56.435Z,5.20
2022-07-31T11:01:08.476Z,3.97
2022-07-31T11:04:02.533Z,3.90
2022-07-31T11:07:23.034Z,4.50
2022-07-31T11:10:24.268Z,4.40
2022-07-31T11:13:57.940Z,3.80
2022-07-31T11:17:01.631Z,5.35
2022-07-31T11:23:15.243Z,6.78
2022-07-31T11:26:04.217Z,4.00
2022-07-31T11:28:50.391Z,4.15
2022-07-31T11:31:36.632Z,6.97
2022-07-31T11:34:23.292Z,3.30
2022-07-31T11:37:18.273Z,4.97
2022-07-31T11:40:06.126Z,4.68
2022-07-31T11:43:23.246Z,4.95
2022-07-31T11:46:02.397Z,4.93
2022-07-31T11:48:51.363Z,9.25
2022-07-31T11:51:37.751Z,3.80
2022-07-31T11:54:25.252Z,9.43
2022-07-31T11:57:11.383Z,4.60
2022-07-31T11:59:57.368Z,4.30
2022-07-31T12:02:46.664Z,3.45
2022-07-31T12:05:44.297Z,4.38
2022-07-31T12:08:31.071Z,4.00
2022-07-31T12:11:19.103Z,4.80
2022-07-31T12:14:05.172Z,4.78
2022-07-31T12:16:51.089Z,3.38
2022-07-31T12:19:38.852Z,5.22
2022-07-31T12:22:26.341Z,3.05
2022-07-31T12:25:15.557Z,4.43
2022-07-31T12:28:03.099Z,4.15
2022-07-31T12:30:59.948Z,5.22
2022-07-31T12:33:48.520Z,3.60
2022-07-31T12:36:34.661Z,4.43
2022-07-31T12:39:20.856Z,3.58
2022-07-31T12:42:06.930Z,3.42
2022-07-31T12:44:55.325Z,2.60
2022-07-31T12:47:41.637Z,2.50
2022-07-31T12:50:28.883Z,2.78
2022-07-31T12:53:14.833Z,1.98
2022-07-31T12:56:01.401Z,3.15
2022-07-31T12:58:47.504Z,2.00
2022-07-31T13:01:34.515Z,2.30
2022-07-31T13:04:20.945Z,2.35
2022-07-31T13:07:08.518Z,2.97
2022-07-31T13:10:19.770Z,2.13
2022-07-31T13:13:01.312Z,2.45
2022-07-31T13:15:47.507Z,2.85
2022-07-31T13:18:35.548Z,2.13
2022-07-31T13:21:21.356Z,1.90
2022-07-31T13:24:09.153Z,1.70
2022-07-31T13:26:55.312Z,1.88
2022-07-31T13:29:41.523Z,2.00
2022-07-31T13:32:27.573Z,1.98
2022-07-31T13:35:28.061Z,1.88
2022-07-31T13:38:15.172Z,2.97
2022-07-31T13:41:19.726Z,1.55
2022-07-31T13:44:09.818Z,2.22
2022-07-31T13:46:56.002Z,1.75
2022-07-31T13:49:42.006Z,0.90
2022-07-31T13:52:28.368Z,1.30
2022-07-31T13:55:14.485Z,2.55
2022-07-31T13:58:01.091Z,2.25
2022-07-31T14:00:48.097Z,2.08
2022-07-31T14:03:34.497Z,1.83
2022-07-31T14:06:22.715Z,2.53
2022-07-31T14:09:08.914Z,3.85
2022-07-31T14:11:56.143Z,2.10
2022-07-31T14:14:42.589Z,1.67
2022-07-31T14:17:28.527Z,1.60
2022-07-31T14:20:14.524Z,2.47
2022-07-31T14:23:04.336Z,2.47
2022-07-31T14:25:50.857Z,2.97
2022-07-31T14:28:36.861Z,1.30
2022-07-31T14:31:23.162Z,2.95
2022-07-31T14:34:09.166Z,1.52
2022-07-31T14:36:55.134Z,3.15
2022-07-31T14:39:42.858Z,1.20
2022-07-31T14:42:29.333Z,0.77
2022-07-31T14:45:15.544Z,0.88
2022-07-31T14:48:02.168Z,3.10
2022-07-31T14:50:47.866Z,3.08
2022-07-31T14:53:33.896Z,1.40
2022-07-31T14:56:34.761Z,1.40
2022-07-31T14:59:26.671Z,1.65
2022-07-31T15:02:12.900Z,3.63
2022-07-31T15:04:58.931Z,2.10
2022-07-31T15:08:06.398Z,1.83
2022-07-31T15:10:52.606Z,1.13
2022-07-31T15:13:39.133Z,2.45
2022-07-31T15:16:25.203Z,1.35
2022-07-31T15:19:11.960Z,1.83
2022-07-31T15:22:10.141Z,3.15
2022-07-31T15:25:02.638Z,2.42
2022-07-31T15:27:48.936Z,1.65
2022-07-31T15:30:34.934Z,2.42
2022-07-31T15:33:21.093Z,2.75
2022-07-31T15:36:07.311Z,1.75
2022-07-31T15:38:53.369Z,1.65
2022-07-31T15:41:39.308Z,1.17
2022-07-31T15:44:25.612Z,1.35
2022-07-31T15:47:13.046Z,2.40
2022-07-31T15:49:59.633Z,1.13
2022-07-31T15:52:46.232Z,2.40
2022-07-31T15:55:32.088Z,1.20
2022-07-31T15:58:18.178Z,0.85
2022-07-31T16:01:04.225Z,1.02
2022-07-31T16:03:53.531Z,1.65
2022-07-31T16:06:40.100Z,1.48
2022-07-31T16:09:26.336Z,1.42
2022-07-31T16:12:13.835Z,1.75
2022-07-31T16:15:00.481Z,1.60
2022-07-31T16:17:48.765Z,2.03
2022-07-31T16:20:34.981Z,4.00
2022-07-31T16:23:21.063Z,4.65
2022-07-31T16:26:07.790Z,3.78
2022-07-31T16:28:54.396Z,2.92
2022-07-31T16:31:40.956Z,1.98
2022-07-31T16:34:27.016Z,0.90
2022-07-31T16:37:13.302Z,0.88
2022-07-31T16:40:01.875Z,0.85
2022-07-31T16:42:53.066Z,2.13
2022-07-31T16:45:38.906Z,1.02
2022-07-31T16:48:24.731Z,2.40
2022-07-31T16:51:10.882Z,1.60
2022-07-31T16:54:13.590Z,3.03
2022-07-31T16:57:02.382Z,2.33
2022-07-31T16:59:56.926Z,2.03
2022-07-31T17:02:44.257Z,2.53
2022-07-31T17:05:30.480Z,1.30
2022-07-31T17:08:16.453Z,2.05
2022-07-31T17:11:05.985Z,1.10
2022-07-31T17:13:52.284Z,1.58
2022-07-31T17:16:38.269Z,1.55
2022-07-31T17:19:41.594Z,2.22
2022-07-31T17:22:32.185Z,1.50
2022-07-31T17:25:19.998Z,2.63
2022-07-31T17:28:05.857Z,2.42
2022-07-31T17:30:51.979Z,1.67
2022-07-31T17:33:54.707Z,1.85
2022-07-31T17:36:44.040Z,2.15
2022-07-31T17:39:31.192Z,3.65
2022-07-31T17:42:18.043Z,1.70
2022-07-31T17:45:08.152Z,1.95
2022-07-31T17:48:03.565Z,1.67
2022-07-31T17:50:54.129Z,2.28
2022-07-31T17:53:55.135Z,3.55
2022-07-31T17:56:45.476Z,1.92
2022-07-31T17:59:38.016Z,2.70
2022-07-31T18:02:24.098Z,5.22
2022-07-31T18:05:10.712Z,5.75
2022-07-31T18:07:56.923Z,8.05
2022-07-31T18:10:53.875Z,4.15
2022-07-31T18:13:48.328Z,4.97
2022-07-31T18:16:37.912Z,3.53
2022-07-31T18:19:24.214Z,4.90
2022-07-31T18:22:10.682Z,4.35
2022-07-31T18:24:57.067Z,4.18
2022-07-31T18:27:43.474Z,4.32
2022-07-31T18:30:30.756Z,4.10
2022-07-31T18:33:19.739Z,5.85
2022-07-31T18:36:05.812Z,4.18
2022-07-31T18:38:52.162Z,4.22
2022-07-31T18:41:38.521Z,5.75
2022-07-31T18:44:24.903Z,4.00
2022-07-31T18:47:13.759Z,4.93
2022-07-31T18:50:59.640Z,5.53
2022-07-31T18:53:05.854Z,6.07
2022-07-31T18:55:51.768Z,5.00
2022-07-31T18:58:37.813Z,5.28
2022-07-31T19:01:23.917Z,11.05
2022-07-31T19:04:10.128Z,4.78
2022-07-31T19:06:56.628Z,4.93
2022-07-31T19:09:42.664Z,7.78
2022-07-31T19:12:31.717Z,5.30
2022-07-31T19:15:18.256Z,4.57
2022-07-31T19:18:05.062Z,4.95
2022-07-31T19:20:58.964Z,5.05
2022-07-31T19:23:59.703Z,4.97
2022-07-31T19:26:45.529Z,3.53
2022-07-31T19:29:31.735Z,4.40
2022-07-31T19:32:20.077Z,3.28
2022-07-31T19:35:06.965Z,5.82
2022-07-31T19:38:01.090Z,4.97
2022-07-31T19:40:48.262Z,5.18
2022-07-31T19:43:35.773Z,2.92
2022-07-31T19:46:22.099Z,4.18
2022-07-31T19:49:08.304Z,3.78
2022-07-31T19:51:54.480Z,6.45
2022-07-31T19:54:40.437Z,5.03
2022-07-31T19:57:26.497Z,4.20
2022-07-31T20:00:13.890Z,3.25
2022-07-31T20:03:00.141Z,3.17
2022-07-31T20:05:47.615Z,3.50
2022-07-31T20:08:34.834Z,4.35
2022-07-31T20:11:20.817Z,6.90
2022-07-31T20:14:06.837Z,3.80
2022-07-31T20:16:53.251Z,3.90
2022-07-31T20:20:14.709Z,3.97
2022-07-31T20:22:45.800Z,2.75
2022-07-31T20:25:31.740Z,3.08
2022-07-31T20:28:17.872Z,4.05
2022-07-31T20:31:04.093Z,4.57
2022-07-31T20:33:57.470Z,4.30
2022-07-31T20:36:44.525Z,3.92
2022-07-31T20:39:33.949Z,4.30
2022-07-31T20:42:20.531Z,5.32
2022-07-31T20:45:07.706Z,3.80
2022-07-31T20:47:56.691Z,3.42
2022-07-31T20:50:43.098Z,3.50
2022-07-31T20:53:34.295Z,5.07
2022-07-31T20:56:22.118Z,5.45
2022-07-31T20:59:08.126Z,4.50
2022-07-31T21:01:54.255Z,4.53
2022-07-31T21:04:40.826Z,3.30
2022-07-31T21:07:27.280Z,3.47
2022-07-31T21:10:13.866Z,6.45
2022-07-31T21:13:01.041Z,4.00
2022-07-31T21:15:47.536Z,5.38
2022-07-31T21:18:35.791Z,3.42
2022-07-31T21:21:23.234Z,5.43
2022-07-31T21:24:09.874Z,4.72
2022-07-31T21:26:59.598Z,4.75
2022-07-31T21:29:45.801Z,4.38
2022-07-31T21:32:32.044Z,5.15
2022-07-31T21:35:36.103Z,3.72
2022-07-31T21:38:27.939Z,5.63
2022-07-31T21:41:14.172Z,6.00
2022-07-31T21:44:00.636Z,5.70
2022-07-31T21:46:50.561Z,4.22
2022-07-31T21:49:39.223Z,4.93
2022-07-31T21:52:27.308Z,4.13
2022-07-31T21:55:13.993Z,5.38
2022-07-31T21:58:00.247Z,8.15
2022-07-31T22:00:47.179Z,5.20
2022-07-31T22:03:33.641Z,4.97
2022-07-31T22:06:38.385Z,6.13
2022-07-31T22:09:24.961Z,4.60
2022-07-31T22:12:11.299Z,5.18
2022-07-31T22:14:57.590Z,4.78
2022-07-31T22:17:44.074Z,6.13
2022-07-31T22:20:30.740Z,5.75
2022-07-31T22:23:17.089Z,4.10
2022-07-31T22:26:03.963Z,5.55
2022-07-31T22:28:53.982Z,4.32
2022-07-31T22:31:40.033Z,5.75
2022-07-31T22:34:37.804Z,5.28
2022-07-31T22:37:27.748Z,6.75
2022-07-31T22:40:15.116Z,4.80
2022-07-31T22:43:02.358Z,5.57
2022-07-31T22:45:49.646Z,5.53
2022-07-31T22:48:38.694Z,5.07
2022-07-31T22:51:24.728Z,6.93
2022-07-31T22:54:10.818Z,6.60
2022-07-31T22:56:56.713Z,4.70
2022-07-31T22:59:44.153Z,4.72
2022-07-31T23:02:30.261Z,5.65
2022-07-31T23:05:16.641Z,4.85
2022-07-31T23:08:03.133Z,6.00
2022-07-31T23:10:49.310Z,4.78
2022-07-31T23:13:35.166Z,6.00
2022-07-31T23:16:28.938Z,8.45
2022-07-31T23:19:15.990Z,6.25
2022-07-31T23:22:05.291Z,4.65
2022-07-31T23:24:52.124Z,5.50
2022-07-31T23:27:39.655Z,5.53
2022-07-31T23:30:27.592Z,4.78
2022-07-31T23:33:16.464Z,4.53
2022-07-31T23:36:03.728Z,5.15
2022-07-31T23:38:53.373Z,4.57
2022-07-31T23:41:59.070Z,6.07
2022-07-31T23:44:46.150Z,4.50
2022-07-31T23:47:44.431Z,5.47
2022-07-31T23:50:38.348Z,4.03
2022-07-31T23:53:24.659Z,5.28
2022-07-31T23:56:18.443Z,4.93
2022-07-31T23:59:05.939Z,3.95
